Time,TemperatureF,DewpointF,PressureIn,WindDirection,WindDirectionDegrees,WindSpeedMPH,WindSpeedGustMPH,Humidity,HourlyPrecipIn,Conditions,Clouds,dailyrainin,SoftwareType,DateUTC
2013-06-27 00:00:00,81.0,-99.9,29.97,SSE,150,15.0,17.0,-999,-99.99,,,-99.99,,2013-06-27 05:00:00,
2013-06-27 00:33:00,81.0,-99.9,29.97,SSE,150,15.0,17.0,-999,-99.99,,,-99.99,,2013-06-27 05:33:00,
2013-06-27 00:42:00,81.0,-99.9,29.97,SSE,150,15.0,17.0,-999,-99.99,,,-99.99,,2013-06-27 05:42:00,
2013-06-27 00:53:00,81.0,-99.9,29.97,SSE,150,15.0,17.0,-999,-99.99,,,-99.99,,2013-06-27 05:53:00,
2013-06-27 01:00:00,80.0,-99.9,29.98,SSE,150,14.0,15.0,-999,-99.99,,,-99.99,,2013-06-27 06:00:00,
2013-06-27 01:34:00,80.0,-99.9,29.98,SSE,150,14.0,15.0,-999,-99.99,,,-99.99,,2013-06-27 06:34:00,
2013-06-27 01:43:00,80.0,-99.9,29.98,SSE,150,14.0,15.0,-999,-99.99,,,-99.99,,2013-06-27 06:43:00,
2013-06-27 01:53:00,80.0,-99.9,29.98,SSE,150,14.0,15.0,-999,-99.99,,,-99.99,,2013-06-27 06:53:00,
2013-06-27 02:00:00,80.0,-99.9,29.97,SSE,160,14.0,16.0,-999,-99.99,,,-99.99,,2013-06-27 07:00:00,
2013-06-27 02:34:00,80.0,-99.9,29.97,SSE,160,14.0,16.0,-999,-99.99,,,-99.99,,2013-06-27 07:34:00,
2013-06-27 02:43:00,80.0,-99.9,29.97,SSE,160,14.0,16.0,-999,-99.99,,,-99.99,,2013-06-27 07:43:00,
2013-06-27 02:52:00,80.0,-99.9,29.97,SSE,160,14.0,16.0,-999,-99.99,,,-99.99,,2013-06-27 07:52:00,
2013-06-27 03:00:00,80.0,-99.9,29.97,SSE,160,14.0,15.0,-999,-99.99,,,-99.99,,2013-06-27 08:00:00,
2013-06-27 03:44:00,80.0,-99.9,29.97,SSE,160,14.0,15.0,-999,-99.99,,,-99.99,,2013-06-27 08:44:00,
2013-06-27 03:52:00,80.0,-99.9,29.97,SSE,160,14.0,15.0,-999,-99.99,,,-99.99,,2013-06-27 08:52:00,
2013-06-27 05:00:00,79.0,-99.9,29.97,South,170,13.0,15.0,-999,-99.99,,,-99.99,,2013-06-27 10:00:00,
2013-06-27 05:22:00,79.0,-99.9,29.97,South,170,13.0,15.0,-999,-99.99,,,-99.99,,2013-06-27 10:22:00,
2013-06-27 05:32:00,79.0,-99.9,29.97,South,170,13.0,15.0,-999,-99.99,,,-99.99,,2013-06-27 10:32:00,
2013-06-27 05:44:00,79.0,-99.9,29.97,South,170,13.0,15.0,-999,-99.99,,,-99.99,,2013-06-27 10:44:00,
2013-06-27 05:54:00,79.0,-99.9,29.97,South,170,13.0,15.0,-999,-99.99,,,-99.99,,2013-06-27 10:54:00,
2013-06-27 06:00:00,79.0,-99.9,29.97,South,170,12.0,14.0,-999,-99.99,,,-99.99,,2013-06-27 11:00:00,
2013-06-27 06:22:00,79.0,-99.9,29.97,South,170,12.0,14.0,-999,-99.99,,,-99.99,,2013-06-27 11:22:00,
2013-06-27 06:33:00,79.0,-99.9,29.97,South,170,12.0,14.0,-999,-99.99,,,-99.99,,2013-06-27 11:33:00,
2013-06-27 06:43:00,79.0,-99.9,29.97,South,170,12.0,14.0,-999,-99.99,,,-99.99,,2013-06-27 11:43:00,
2013-06-27 06:53:00,79.0,-99.9,29.97,South,170,12.0,14.0,-999,-99.99,,,-99.99,,2013-06-27 11:53:00,
2013-06-27 07:00:00,79.0,-99.9,29.99,SSE,160,8.0,8.0,-999,-99.99,,,-99.99,,2013-06-27 12:00:00,
2013-06-27 07:22:00,79.0,-99.9,29.99,SSE,160,8.0,8.0,-999,-99.99,,,-99.99,,2013-06-27 12:22:00,
2013-06-27 07:34:00,79.0,-99.9,29.99,SSE,160,8.0,8.0,-999,-99.99,,,-99.99,,2013-06-27 12:34:00,
2013-06-27 07:42:00,79.0,-99.9,29.99,SSE,160,8.0,8.0,-999,-99.99,,,-99.99,,2013-06-27 12:42:00,
2013-06-27 08:00:00,80.0,-99.9,29.99,SSE,150,8.0,9.0,-999,-99.99,,,-99.99,,2013-06-27 13:00:00,
2013-06-27 08:34:00,80.0,-99.9,29.99,SSE,150,8.0,9.0,-999,-99.99,,,-99.99,,2013-06-27 13:34:00,
2013-06-27 08:43:00,80.0,-99.9,29.99,SSE,150,8.0,9.0,-999,-99.99,,,-99.99,,2013-06-27 13:43:00,
2013-06-27 08:53:00,80.0,-99.9,29.99,SSE,150,8.0,9.0,-999,-99.99,,,-99.99,,2013-06-27 13:53:00,
2013-06-27 09:00:00,81.0,-99.9,30.01,SE,140,5.0,6.0,-999,-99.99,,,-99.99,,2013-06-27 14:00:00,
2013-06-27 09:33:00,81.0,-99.9,30.01,SE,140,5.0,6.0,-999,-99.99,,,-99.99,,2013-06-27 14:33:00,
2013-06-27 09:43:00,81.0,-99.9,30.01,SE,140,5.0,6.0,-999,-99.99,,,-99.99,,2013-06-27 14:43:00,
2013-06-27 09:52:00,81.0,-99.9,30.01,SE,140,5.0,6.0,-999,-99.99,,,-99.99,,2013-06-27 14:52:00,
2013-06-27 12:00:00,81.0,-99.9,30.01,ESE,110,7.0,8.0,-999,-99.99,,,-99.99,,2013-06-27 17:00:00,
2013-06-27 12:33:00,81.0,-99.9,30.01,ESE,110,7.0,8.0,-999,-99.99,,,-99.99,,2013-06-27 17:33:00,
2013-06-27 12:43:00,81.0,-99.9,30.01,ESE,110,7.0,8.0,-999,-99.99,,,-99.99,,2013-06-27 17:43:00,
2013-06-27 12:53:00,81.0,-99.9,30.01,ESE,110,7.0,8.0,-999,-99.99,,,-99.99,,2013-06-27 17:53:00,
2013-06-27 15:00:00,82.0,-99.9,29.98,ESE,120,10.0,12.0,-999,-99.99,,,-99.99,,2013-06-27 20:00:00,
2013-06-27 15:22:00,82.0,-99.9,29.98,ESE,120,10.0,12.0,-999,-99.99,,,-99.99,,2013-06-27 20:22:00,
2013-06-27 15:40:00,82.0,-99.9,29.98,ESE,120,10.0,12.0,-999,-99.99,,,-99.99,,2013-06-27 20:40:00,
2013-06-27 15:49:00,82.0,-99.9,29.98,ESE,120,10.0,12.0,-999,-99.99,,,-99.99,,2013-06-27 20:49:00,
2013-06-27 15:57:00,82.0,-99.9,29.98,ESE,120,10.0,12.0,-999,-99.99,,,-99.99,,2013-06-27 20:57:00,
2013-06-27 16:00:00,82.0,-99.9,29.97,ESE,120,12.0,14.0,-999,-99.99,,,-99.99,,2013-06-27 21:00:00,
2013-06-27 16:26:00,82.0,-99.9,29.97,ESE,120,12.0,14.0,-999,-99.99,,,-99.99,,2013-06-27 21:26:00,
2013-06-27 16:37:00,82.0,-99.9,29.97,ESE,120,12.0,14.0,-999,-99.99,,,-99.99,,2013-06-27 21:37:00,
2013-06-27 16:50:00,82.0,-99.9,29.97,ESE,120,12.0,14.0,-999,-99.99,,,-99.99,,2013-06-27 21:50:00,
2013-06-27 16:57:00,82.0,-99.9,29.97,ESE,120,12.0,14.0,-999,-99.99,,,-99.99,,2013-06-27 21:57:00,
2013-06-27 17:00:00,82.0,-99.9,29.96,ESE,120,13.0,15.0,-999,-99.99,,,-99.99,,2013-06-27 22:00:00,
2013-06-27 17:36:00,82.0,-99.9,29.96,ESE,120,13.0,15.0,-999,-99.99,,,-99.99,,2013-06-27 22:36:00,
2013-06-27 17:50:00,82.0,-99.9,29.96,ESE,120,13.0,15.0,-999,-99.99,,,-99.99,,2013-06-27 22:50:00,
2013-06-27 17:59:00,82.0,-99.9,29.96,ESE,120,13.0,15.0,-999,-99.99,,,-99.99,,2013-06-27 22:59:00,
2013-06-27 18:26:00,82.0,-99.9,29.95,ESE,120,12.0,14.0,-999,-99.99,,,-99.99,,2013-06-27 23:26:00,
2013-06-27 18:59:00,82.0,-99.9,29.95,ESE,120,12.0,14.0,-999,-99.99,,,-99.99,,2013-06-27 23:59:00,
2013-06-27 19:00:00,82.0,-99.9,29.94,SE,130,13.0,14.0,-999,-99.99,,,-99.99,,2013-06-28 00:00:00,
2013-06-27 19:31:00,82.0,-99.9,29.94,SE,130,13.0,14.0,-999,-99.99,,,-99.99,,2013-06-28 00:31:00,
2013-06-27 19:38:00,82.0,-99.9,29.94,SE,130,13.0,14.0,-999,-99.99,,,-99.99,,2013-06-28 00:38:00,
2013-06-27 19:46:00,82.0,-99.9,29.94,SE,130,13.0,14.0,-999,-99.99,,,-99.99,,2013-06-28 00:46:00,
2013-06-27 20:00:00,81.0,-99.9,29.94,SE,130,12.0,13.0,-999,-99.99,,,-99.99,,2013-06-28 01:00:00,
2013-06-27 20:27:00,81.0,-99.9,29.94,SE,130,12.0,13.0,-999,-99.99,,,-99.99,,2013-06-28 01:27:00,
2013-06-27 20:37:00,81.0,-99.9,29.94,SE,130,12.0,13.0,-999,-99.99,,,-99.99,,2013-06-28 01:37:00,
2013-06-27 20:49:00,81.0,-99.9,29.94,SE,130,12.0,13.0,-999,-99.99,,,-99.99,,2013-06-28 01:49:00,
2013-06-27 20:59:00,81.0,-99.9,29.94,SE,130,12.0,13.0,-999,-99.99,,,-99.99,,2013-06-28 01:59:00,
2013-06-27 21:00:00,81.0,-99.9,29.95,SE,130,12.0,13.0,-999,-99.99,,,-99.99,,2013-06-28 02:00:00,
2013-06-27 21:29:00,81.0,-99.9,29.95,SE,130,12.0,13.0,-999,-99.99,,,-99.99,,2013-06-28 02:29:00,
2013-06-27 21:39:00,81.0,-99.9,29.95,SE,130,12.0,13.0,-999,-99.99,,,-99.99,,2013-06-28 02:39:00,
2013-06-27 21:50:00,81.0,-99.9,29.95,SE,130,12.0,13.0,-999,-99.99,,,-99.99,,2013-06-28 02:50:00,
2013-06-27 21:58:00,81.0,-99.9,29.95,SE,130,12.0,13.0,-999,-99.99,,,-99.99,,2013-06-28 02:58:00,
2013-06-27 22:00:00,81.0,-99.9,29.96,SE,140,10.0,12.0,-999,-99.99,,,-99.99,,2013-06-28 03:00:00,
2013-06-27 22:40:00,81.0,-99.9,29.96,SE,140,10.0,12.0,-999,-99.99,,,-99.99,,2013-06-28 03:40:00,
2013-06-27 22:46:00,81.0,-99.9,29.96,SE,140,10.0,12.0,-999,-99.99,,,-99.99,,2013-06-28 03:46:00,
2013-06-27 22:58:00,81.0,-99.9,29.96,SE,140,10.0,12.0,-999,-99.99,,,-99.99,,2013-06-28 03:58:00,
2013-06-27 23:00:00,81.0,-99.9,29.96,SSE,150,10.0,12.0,-999,-99.99,,,-99.99,,2013-06-28 04:00:00,
2013-06-27 23:33:00,81.0,-99.9,29.96,SSE,150,10.0,12.0,-999,-99.99,,,-99.99,,2013-06-28 04:33:00,
2013-06-27 23:43:00,81.0,-99.9,29.96,SSE,150,10.0,12.0,-999,-99.99,,,-99.99,,2013-06-28 04:43:00,
2013-06-27 23:53:00,81.0,-99.9,29.96,SSE,150,10.0,12.0,-999,-99.99,,,-99.99,,2013-06-28 04:53:00,